Time;durP1;ratioP1;P1;durP2;ratioP2;P2;SDS_P1;SDS_P2;PMS_P1;PMS_P2;Temp;Humidity;BMP_temperature;BMP_pressure;BME280_temperature;BME280_humidity;BME280_pressure;Samples;Min_cycle;Max_cycle;Signal;HPM_P1;HPM_P2
2020/12/19 00:00:49;;;;;;;17.88;9.70;;;8.20;63.10;;;;;;5053616;28;20024;-72
2020/12/19 00:03:15;;;;;;;16.73;9.10;;;8.20;63.00;;;;;;5052962;28;20032;-72
2020/12/19 00:05:41;;;;;;;21.83;11.00;;;8.20;63.00;;;;;;5059289;28;20054;-72
2020/12/19 00:08:06;;;;;;;20.85;9.68;;;8.20;62.80;;;;;;5059391;28;20033;-73
2020/12/19 00:10:33;;;;;;;20.10;10.45;;;8.20;62.80;;;;;;5052351;28;20028;-72
2020/12/19 00:13:01;;;;;;;17.55;8.77;;;8.10;62.70;;;;;;5052109;28;20484;-73
2020/12/19 00:15:27;;;;;;;19.75;10.40;;;8.10;62.90;;;;;;5066028;28;20040;-73
2020/12/19 00:17:53;;;;;;;15.85;9.32;;;8.10;62.80;;;;;;5067321;28;20025;-73
2020/12/19 00:20:19;;;;;;;17.10;9.75;;;8.10;62.80;;;;;;5049703;28;20385;-72
2020/12/19 00:22:45;;;;;;;16.73;9.00;;;8.00;62.80;;;;;;5050816;28;20134;-72
2020/12/19 00:25:11;;;;;;;15.23;7.95;;;8.00;62.80;;;;;;5053159;28;20489;-73
2020/12/19 00:27:37;;;;;;;15.07;8.45;;;8.00;62.90;;;;;;5053198;28;20479;-72
2020/12/19 00:30:04;;;;;;;14.85;8.57;;;7.90;63.80;;;;;;5043642;28;20092;-73
2020/12/19 00:32:30;;;;;;;17.50;9.65;;;7.90;63.10;;;;;;5053060;28;20021;-72
2020/12/19 00:34:56;;;;;;;14.50;8.25;;;7.90;63.10;;;;;;5053056;28;20047;-72
2020/12/19 00:37:23;;;;;;;16.88;8.90;;;7.90;63.10;;;;;;5051877;28;20083;-73
2020/12/19 00:39:49;;;;;;;13.75;8.27;;;7.90;63.20;;;;;;5047376;28;20094;-72
2020/12/19 00:42:15;;;;;;;15.57;9.13;;;7.90;63.20;;;;;;5063826;28;20397;-72
2020/12/19 00:44:40;;;;;;;14.40;8.55;;;7.90;63.30;;;;;;5053407;28;20473;-73
2020/12/19 00:47:06;;;;;;;14.43;8.23;;;7.90;63.10;;;;;;5047494;28;20389;-73
2020/12/19 00:49:32;;;;;;;13.57;7.70;;;7.90;63.10;;;;;;5056826;28;20029;-72
2020/12/19 00:51:57;;;;;;;15.07;8.35;;;7.90;63.10;;;;;;5059535;28;20024;-72
2020/12/19 00:54:23;;;;;;;13.80;8.63;;;7.90;63.00;;;;;;5053377;28;20360;-72
2020/12/19 00:56:51;;;;;;;14.95;7.70;;;7.90;63.10;;;;;;5049403;28;20381;-73
2020/12/19 00:59:17;;;;;;;14.73;7.45;;;7.90;62.90;;;;;;5056925;28;20040;-72
2020/12/19 01:01:42;;;;;;;13.85;8.30;;;7.90;63.00;;;;;;5062202;28;20029;-73
2020/12/19 01:04:08;;;;;;;14.18;8.93;;;7.90;62.90;;;;;;5059527;28;20071;-73
2020/12/19 01:06:34;;;;;;;14.75;8.27;;;7.90;62.70;;;;;;5051777;28;20378;-72
2020/12/19 01:09:01;;;;;;;16.05;8.50;;;7.90;62.80;;;;;;5050395;28;20063;-73
2020/12/19 01:11:29;;;;;;;12.70;7.05;;;7.90;62.80;;;;;;5059343;28;20072;-72
2020/12/19 01:13:55;;;;;;;11.02;6.88;;;7.90;62.80;;;;;;5059354;28;20028;-73
2020/12/19 01:16:23;;;;;;;14.43;8.07;;;8.00;63.00;;;;;;5053563;28;20018;-73
2020/12/19 01:18:51;;;;;;;10.95;7.10;;;8.00;63.00;;;;;;5048660;28;20029;-73
2020/12/19 01:21:24;;;;;;;11.18;6.50;;;8.00;63.00;;;;;;5057708;28;20404;-73
2020/12/19 01:23:50;;;;;;;15.85;8.27;;;8.00;62.90;;;;;;5059532;28;20114;-73
2020/12/19 01:26:19;;;;;;;14.15;7.82;;;8.00;62.80;;;;;;5053803;28;20187;-73
2020/12/19 01:28:46;;;;;;;13.85;7.35;;;8.00;62.50;;;;;;5058109;28;20027;-73
2020/12/19 01:31:14;;;;;;;10.23;6.88;;;8.00;62.40;;;;;;5058563;28;20025;-73
2020/12/19 01:33:40;;;;;;;14.27;7.75;;;8.00;62.40;;;;;;5070803;28;20032;-72
2020/12/19 01:36:11;;;;;;;10.52;6.65;;;8.00;62.50;;;;;;5078840;28;20035;-72
2020/12/19 01:38:37;;;;;;;16.13;8.30;;;8.00;62.40;;;;;;5072008;28;20025;-72
2020/12/19 01:41:04;;;;;;;20.00;10.70;;;8.00;62.40;;;;;;5051785;28;20080;-72
2020/12/19 01:43:51;;;;;;;28.90;14.95;;;8.00;62.40;;;;;;5039899;28;20105;-72
2020/12/19 01:46:42;;;;;;;15.40;9.75;;;8.00;62.30;;;;;;5051332;28;20021;-73
2020/12/19 01:49:09;;;;;;;13.88;8.65;;;8.00;62.20;;;;;;5059183;28;20033;-72
2020/12/19 01:51:36;;;;;;;14.95;9.05;;;8.10;62.20;;;;;;5058031;28;20429;-73
2020/12/19 01:54:03;;;;;;;14.52;8.25;;;8.10;62.20;;;;;;5057853;28;20036;-72
2020/12/19 01:56:38;;;;;;;10.68;7.15;;;8.10;62.10;;;;;;5053175;28;20029;-72
2020/12/19 01:59:04;;;;;;;11.27;6.78;;;8.00;61.90;;;;;;5055164;28;20095;-72
2020/12/19 02:01:30;;;;;;;11.10;6.95;;;8.00;61.80;;;;;;5054235;28;20450;-71
2020/12/19 02:03:56;;;;;;;11.60;6.65;;;8.00;61.70;;;;;;5054555;28;20100;-72
2020/12/19 02:06:24;;;;;;;12.05;7.38;;;8.00;61.90;;;;;;5054821;28;20021;-71
2020/12/19 02:08:52;;;;;;;12.98;8.93;;;8.00;62.00;;;;;;5054969;28;20029;-71
2020/12/19 02:11:19;;;;;;;15.57;9.55;;;8.10;62.10;;;;;;5053923;28;20033;-71
2020/12/19 02:13:45;;;;;;;12.30;8.20;;;8.00;62.00;;;;;;5055006;28;20025;-72
2020/12/19 02:16:17;;;;;;;12.60;7.47;;;8.10;61.90;;;;;;5055175;28;20029;-72
2020/12/19 02:18:43;;;;;;;12.52;7.55;;;8.10;61.90;;;;;;5054789;28;20399;-72
2020/12/19 02:21:09;;;;;;;10.65;6.28;;;8.10;61.70;;;;;;5053872;28;20409;-72
2020/12/19 02:23:34;;;;;;;11.05;6.78;;;8.00;61.60;;;;;;5053341;28;20035;-72
2020/12/19 02:26:00;;;;;;;8.23;5.68;;;8.10;61.70;;;;;;5043261;28;20399;-72
2020/12/19 02:28:26;;;;;;;9.23;5.97;;;8.10;61.60;;;;;;5052016;28;20029;-72
2020/12/19 02:30:51;;;;;;;9.82;6.63;;;8.10;61.70;;;;;;5053462;28;20025;-71
2020/12/19 02:33:17;;;;;;;8.20;5.75;;;8.10;61.70;;;;;;5054337;28;20541;-71
2020/12/19 02:35:43;;;;;;;9.50;5.80;;;8.10;61.50;;;;;;5053392;28;20033;-71
2020/12/19 02:38:08;;;;;;;8.85;6.18;;;8.10;61.60;;;;;;5054411;28;20033;-71
2020/12/19 02:40:34;;;;;;;7.72;5.50;;;8.10;61.40;;;;;;5054592;28;20029;-71
2020/12/19 02:43:00;;;;;;;8.68;5.55;;;8.10;61.20;;;;;;5061253;28;20036;-72
2020/12/19 02:45:25;;;;;;;10.00;6.20;;;8.10;61.10;;;;;;5072961;28;20094;-71
2020/12/19 02:47:51;;;;;;;8.90;5.88;;;8.00;60.90;;;;;;5054350;28;20021;-72
2020/12/19 02:50:17;;;;;;;9.73;5.88;;;8.00;61.00;;;;;;5054416;28;20112;-71
2020/12/19 02:52:42;;;;;;;8.38;5.65;;;8.00;61.10;;;;;;5054128;28;20025;-72
2020/12/19 02:55:08;;;;;;;7.80;5.32;;;8.00;61.10;;;;;;5054277;28;20029;-71
2020/12/19 02:57:34;;;;;;;8.48;5.05;;;8.00;61.30;;;;;;5052959;28;20060;-72
2020/12/19 03:00:00;;;;;;;10.05;6.55;;;8.00;61.20;;;;;;5052808;28;20021;-72
2020/12/19 03:02:26;;;;;;;9.95;6.07;;;8.00;61.10;;;;;;5050693;28;20040;-72
2020/12/19 03:04:51;;;;;;;8.95;5.88;;;8.00;61.20;;;;;;5051129;28;20482;-72
2020/12/19 03:07:17;;;;;;;8.57;5.63;;;8.00;61.20;;;;;;5052855;28;20394;-71
2020/12/19 03:09:43;;;;;;;7.75;5.65;;;8.00;61.10;;;;;;5053847;28;20112;-72
2020/12/19 03:12:08;;;;;;;8.63;5.93;;;8.00;61.20;;;;;;5053762;28;20482;-71
2020/12/19 03:14:34;;;;;;;9.23;6.05;;;8.00;61.20;;;;;;5053983;28;20418;-71
2020/12/19 03:17:00;;;;;;;11.57;6.75;;;8.00;61.20;;;;;;5053840;28;20474;-71
2020/12/19 03:19:25;;;;;;;9.95;6.18;;;8.00;61.20;;;;;;5053494;28;20108;-72
2020/12/19 03:21:51;;;;;;;9.82;6.10;;;8.00;61.10;;;;;;5053810;28;20021;-71
2020/12/19 03:24:17;;;;;;;8.27;5.43;;;8.00;61.10;;;;;;5053665;28;20448;-73
2020/12/19 03:26:42;;;;;;;9.05;5.45;;;8.00;61.10;;;;;;5053617;28;20028;-71
2020/12/19 03:29:08;;;;;;;9.20;6.05;;;8.00;61.10;;;;;;5053636;28;20111;-71
2020/12/19 03:31:34;;;;;;;8.20;5.40;;;8.00;61.10;;;;;;5053691;28;20489;-71
2020/12/19 03:33:59;;;;;;;8.63;5.85;;;8.00;61.10;;;;;;5052304;28;20057;-71
2020/12/19 03:36:25;;;;;;;8.48;5.53;;;8.00;61.10;;;;;;5053293;28;20024;-71
2020/12/19 03:38:51;;;;;;;8.85;6.18;;;8.00;61.10;;;;;;5053375;28;20117;-71
2020/12/19 03:41:17;;;;;;;8.10;5.13;;;8.00;61.00;;;;;;5052315;28;20031;-71
2020/12/19 03:43:42;;;;;;;9.23;6.25;;;8.00;61.00;;;;;;5053409;28;20060;-71
2020/12/19 03:46:08;;;;;;;9.90;6.50;;;8.10;61.10;;;;;;5052045;28;20052;-71
2020/12/19 03:48:34;;;;;;;11.95;6.57;;;8.00;60.80;;;;;;5054487;28;20029;-71
2020/12/19 03:51:00;;;;;;;10.52;6.75;;;8.00;60.60;;;;;;5053395;28;20104;-71
2020/12/19 03:53:25;;;;;;;11.98;6.88;;;8.00;60.60;;;;;;5051895;28;20441;-71
2020/12/19 03:55:51;;;;;;;11.35;6.70;;;8.00;60.70;;;;;;5062000;28;20036;-71
2020/12/19 03:58:17;;;;;;;10.23;6.45;;;8.00;60.60;;;;;;5071897;28;20119;-71
2020/12/19 04:00:43;;;;;;;8.82;5.90;;;7.90;60.60;;;;;;5071869;28;20066;-71
2020/12/19 04:03:08;;;;;;;9.95;5.85;;;8.00;60.80;;;;;;5071704;28;20366;-71
2020/12/19 04:05:34;;;;;;;11.32;6.88;;;8.00;60.80;;;;;;5050562;28;20039;-71
2020/12/19 04:08:00;;;;;;;10.77;6.55;;;7.90;60.80;;;;;;5053052;28;20041;-71
2020/12/19 04:10:25;;;;;;;11.65;6.22;;;7.90;60.60;;;;;;5053013;28;20048;-71
2020/12/19 04:12:51;;;;;;;11.43;7.00;;;7.90;60.60;;;;;;5052928;28;20056;-71
2020/12/19 04:15:22;;;;;;;9.60;6.03;;;7.90;60.40;;;;;;5053099;28;20025;-71
2020/12/19 04:17:50;;;;;;;10.05;6.05;;;7.80;60.30;;;;;;5051712;28;20412;-71
2020/12/19 04:20:16;;;;;;;8.70;6.20;;;7.80;60.30;;;;;;5051867;28;20405;-71
2020/12/19 04:22:41;;;;;;;10.02;6.10;;;7.80;60.20;;;;;;5052362;28;20028;-71
2020/12/19 04:25:09;;;;;;;8.00;5.28;;;7.70;60.20;;;;;;5051265;28;20094;-71
2020/12/19 04:27:36;;;;;;;9.57;6.03;;;7.70;60.20;;;;;;5041984;28;20479;-71
2020/12/19 04:30:03;;;;;;;13.88;7.97;;;7.70;60.30;;;;;;5043921;28;20536;-71
2020/12/19 04:32:28;;;;;;;13.63;8.00;;;7.70;60.40;;;;;;5051288;28;20025;-71
2020/12/19 04:34:54;;;;;;;14.52;7.97;;;7.70;60.40;;;;;;5055539;28;20024;-71
2020/12/19 04:37:20;;;;;;;11.20;7.07;;;7.70;60.50;;;;;;5072554;28;20021;-71
2020/12/19 04:39:46;;;;;;;10.00;6.00;;;7.70;60.60;;;;;;5063569;28;20107;-71
2020/12/19 04:42:13;;;;;;;13.07;7.38;;;7.70;60.60;;;;;;5051245;28;20386;-71
2020/12/19 04:44:39;;;;;;;12.05;6.75;;;7.70;60.40;;;;;;5052512;28;20043;-71
2020/12/19 04:47:05;;;;;;;16.40;8.48;;;7.60;60.30;;;;;;5052175;28;20124;-71
2020/12/19 04:49:32;;;;;;;12.60;7.07;;;7.60;60.30;;;;;;5052335;28;20382;-71
2020/12/19 04:51:59;;;;;;;18.77;10.38;;;7.60;60.20;;;;;;5052204;28;20037;-71
2020/12/19 04:54:24;;;;;;;11.23;6.75;;;7.60;60.20;;;;;;5052503;28;20082;-71
2020/12/19 04:56:54;;;;;;;10.48;6.72;;;7.70;60.30;;;;;;5050763;28;20037;-71
2020/12/19 04:59:20;;;;;;;11.88;7.00;;;7.60;60.20;;;;;;5051955;28;20037;-71
2020/12/19 05:01:45;;;;;;;7.88;5.22;;;7.60;60.20;;;;;;5051104;28;20029;-71
2020/12/19 05:04:15;;;;;;;8.73;6.10;;;7.60;60.20;;;;;;5047603;28;20099;-71
2020/12/19 05:06:40;;;;;;;10.07;6.00;;;7.60;60.20;;;;;;5049463;28;20021;-71
2020/12/19 05:09:08;;;;;;;8.18;5.18;;;7.60;60.10;;;;;;5047680;28;20033;-71
2020/12/19 05:11:34;;;;;;;9.63;5.88;;;7.60;60.00;;;;;;5049302;28;20505;-71
2020/12/19 05:14:06;;;;;;;8.20;5.32;;;7.50;60.00;;;;;;5050115;28;20033;-71
2020/12/19 05:16:33;;;;;;;6.88;5.07;;;7.50;60.00;;;;;;5051508;28;20025;-71
2020/12/19 05:19:08;;;;;;;9.15;5.78;;;7.50;60.00;;;;;;5050308;28;20036;-71
2020/12/19 05:21:43;;;;;;;9.68;6.00;;;7.50;60.10;;;;;;5052005;28;20505;-71
2020/12/19 05:24:14;;;;;;;11.35;6.57;;;7.50;60.30;;;;;;5051945;28;20056;-71
2020/12/19 05:26:41;;;;;;;9.80;6.20;;;7.50;60.20;;;;;;5052010;28;20052;-71
2020/12/19 05:29:06;;;;;;;8.90;6.28;;;7.50;60.20;;;;;;5052222;28;20029;-71
2020/12/19 05:31:35;;;;;;;9.52;6.55;;;7.50;60.20;;;;;;5053550;28;20540;-71
2020/12/19 05:34:01;;;;;;;8.13;5.05;;;7.50;60.20;;;;;;5055879;28;20025;-71
2020/12/19 05:36:28;;;;;;;8.60;5.43;;;7.50;60.10;;;;;;5055809;28;20103;-71
2020/12/19 05:39:00;;;;;;;10.02;5.47;;;7.60;60.00;;;;;;5055718;28;20025;-71
2020/12/19 05:41:27;;;;;;;10.20;6.95;;;7.60;59.80;;;;;;5054537;28;20021;-71
2020/12/19 05:43:54;;;;;;;8.88;5.88;;;7.60;59.80;;;;;;5054444;28;20473;-71
2020/12/19 05:46:38;;;;;;;8.20;5.57;;;7.60;59.80;;;;;;5055662;28;20021;-71
2020/12/19 05:49:06;;;;;;;7.85;5.82;;;7.60;59.90;;;;;;5064949;28;20552;-70
2020/12/19 05:51:34;;;;;;;7.70;5.30;;;7.60;59.80;;;;;;5062967;28;20068;-71
2020/12/19 05:54:08;;;;;;;7.18;4.55;;;7.60;59.80;;;;;;5055526;28;20033;-71
2020/12/19 05:56:50;;;;;;;6.13;4.32;;;7.50;59.80;;;;;;5055616;28;20025;-71
2020/12/19 05:59:18;;;;;;;9.25;4.60;;;7.60;59.80;;;;;;5035325;28;20037;-69
2020/12/19 06:01:45;;;;;;;6.78;4.50;;;7.60;59.80;;;;;;5034145;28;20018;-71
2020/12/19 06:04:12;;;;;;;11.93;5.50;;;7.60;59.70;;;;;;5035251;28;20025;-71
2020/12/19 06:06:39;;;;;;;16.50;8.95;;;7.60;59.70;;;;;;5033981;28;20027;-71
2020/12/19 06:09:06;;;;;;;15.73;8.82;;;7.60;59.80;;;;;;5054481;28;20108;-71
2020/12/19 06:11:56;;;;;;;11.70;6.63;;;7.60;59.70;;;;;;5055083;28;20025;-71
2020/12/19 06:14:24;;;;;;;9.98;5.78;;;7.60;59.60;;;;;;5050010;28;20406;-71
2020/12/19 06:16:54;;;;;;;10.98;6.28;;;7.60;59.60;;;;;;5055074;28;20025;-71
2020/12/19 06:19:21;;;;;;;13.80;8.18;;;7.60;59.60;;;;;;5052834;28;20410;-71
2020/12/19 06:21:54;;;;;;;8.90;6.13;;;7.60;59.60;;;;;;5050663;28;20028;-71
2020/12/19 06:24:46;;;;;;;13.15;7.45;;;7.60;59.60;;;;;;5052087;28;20124;-71
2020/12/19 06:27:36;;;;;;;9.05;6.32;;;7.60;59.50;;;;;;5054476;28;20056;-71
2020/12/19 06:30:03;;;;;;;10.77;5.28;;;7.70;59.50;;;;;;5054677;28;20021;-71
2020/12/19 06:32:30;;;;;;;7.28;5.03;;;7.70;59.50;;;;;;5053308;28;20103;-71
2020/12/19 06:35:10;;;;;;;7.30;5.30;;;7.60;59.40;;;;;;5034862;28;20033;-71
2020/12/19 06:37:38;;;;;;;7.10;4.88;;;7.60;59.30;;;;;;5034760;28;20084;-71
2020/12/19 06:40:18;;;;;;;6.95;4.25;;;7.70;59.40;;;;;;5034502;28;20025;-71
2020/12/19 06:42:45;;;;;;;6.90;4.43;;;7.70;59.30;;;;;;5033909;28;20026;-71
2020/12/19 06:45:27;;;;;;;10.27;4.88;;;7.60;59.30;;;;;;5034650;28;20021;-71
2020/12/19 06:47:54;;;;;;;7.78;4.88;;;7.60;59.10;;;;;;5035912;28;20049;-71
2020/12/19 06:50:21;;;;;;;7.13;4.68;;;7.70;59.10;;;;;;5054745;28;20110;-72
2020/12/19 06:53:00;;;;;;;5.55;3.90;;;7.70;59.10;;;;;;5054416;28;20036;-71
2020/12/19 06:55:27;;;;;;;8.32;4.45;;;7.60;59.10;;;;;;5054333;28;20106;-72
2020/12/19 06:57:57;;;;;;;8.07;4.68;;;7.60;59.20;;;;;;5054376;28;20025;-72
2020/12/19 07:00:25;;;;;;;6.30;3.83;;;7.60;59.20;;;;;;5054130;28;20025;-72
2020/12/19 07:02:51;;;;;;;6.53;4.38;;;7.60;59.10;;;;;;5063247;28;20380;-72
2020/12/19 07:05:25;;;;;;;6.00;3.92;;;7.60;59.10;;;;;;5038687;28;20471;-72
2020/12/19 07:07:52;;;;;;;6.30;4.05;;;7.60;59.10;;;;;;5034188;28;20121;-72
2020/12/19 07:10:36;;;;;;;7.28;4.40;;;7.70;59.10;;;;;;5034126;28;20060;-72
2020/12/19 07:13:02;;;;;;;7.22;4.38;;;7.60;59.00;;;;;;5040378;28;20370;-72
2020/12/19 07:15:57;;;;;;;6.10;3.60;;;7.60;58.90;;;;;;5054016;28;20033;-72
2020/12/19 07:18:26;;;;;;;6.30;4.13;;;7.70;59.00;;;;;;5048943;28;20041;-72
2020/12/19 07:21:02;;;;;;;6.93;4.40;;;7.70;59.00;;;;;;5053860;28;20087;-72
2020/12/19 07:23:29;;;;;;;5.63;3.97;;;7.70;58.90;;;;;;5053722;28;20108;-71
2020/12/19 07:25:55;;;;;;;6.93;4.50;;;7.70;59.00;;;;;;5052422;28;20128;-71
2020/12/19 07:28:21;;;;;;;6.43;4.63;;;7.70;59.00;;;;;;5060159;28;20120;-71
2020/12/19 07:30:47;;;;;;;5.55;3.72;;;7.70;59.00;;;;;;5073746;28;20055;-71
2020/12/19 07:33:12;;;;;;;6.18;4.00;;;7.70;59.00;;;;;;5073424;28;20067;-72
2020/12/19 07:35:38;;;;;;;7.40;4.45;;;7.70;58.90;;;;;;5073605;28;20028;-72
2020/12/19 07:38:05;;;;;;;7.10;4.75;;;7.70;59.00;;;;;;5064289;28;20474;-72
2020/12/19 07:40:32;;;;;;;5.28;3.65;;;7.70;58.80;;;;;;5053439;28;20025;-72
2020/12/19 07:43:09;;;;;;;6.57;4.32;;;7.70;58.80;;;;;;5053462;28;20056;-72
2020/12/19 07:45:36;;;;;;;6.18;3.88;;;7.70;58.70;;;;;;5053074;28;20012;-72
2020/12/19 07:48:02;;;;;;;6.05;3.97;;;7.70;58.80;;;;;;5053187;28;20028;-72
2020/12/19 07:50:30;;;;;;;8.02;4.72;;;7.70;58.90;;;;;;5053341;28;20025;-72
2020/12/19 07:53:04;;;;;;;7.00;4.40;;;7.70;58.90;;;;;;5053326;28;20046;-72
2020/12/19 07:55:30;;;;;;;8.05;4.68;;;7.70;58.90;;;;;;5051197;28;20082;-72
2020/12/19 07:57:56;;;;;;;8.02;4.10;;;7.70;58.90;;;;;;5053012;28;20029;-72
2020/12/19 08:00:23;;;;;;;6.72;4.65;;;7.70;58.90;;;;;;5053051;28;20363;-72
2020/12/19 08:02:49;;;;;;;8.25;4.47;;;7.70;58.90;;;;;;5052887;28;20031;-72
2020/12/19 08:05:15;;;;;;;5.68;4.03;;;7.70;58.80;;;;;;5035521;28;20021;-72
2020/12/19 08:07:41;;;;;;;6.40;3.80;;;7.70;58.50;;;;;;5032857;28;20025;-72
2020/12/19 08:10:08;;;;;;;7.45;4.28;;;7.70;58.60;;;;;;5032928;28;20026;-72
2020/12/19 08:12:34;;;;;;;6.53;3.95;;;7.80;58.80;;;;;;5033021;28;20479;-72
2020/12/19 08:15:10;;;;;;;4.88;3.40;;;7.80;58.70;;;;;;5043270;28;20033;-72
2020/12/19 08:17:58;;;;;;;6.05;4.10;;;7.80;58.80;;;;;;5060303;28;20021;-72
2020/12/19 08:20:28;;;;;;;5.07;3.55;;;7.80;58.70;;;;;;5056548;28;20064;-72
2020/12/19 08:22:56;;;;;;;13.07;3.90;;;7.80;58.70;;;;;;5063171;28;20547;-72
2020/12/19 08:25:22;;;;;;;7.07;3.85;;;7.80;58.70;;;;;;5068772;28;20130;-72
2020/12/19 08:27:47;;;;;;;10.63;6.90;;;7.90;58.80;;;;;;5049086;28;20088;-72
2020/12/19 08:30:27;;;;;;;7.88;4.55;;;7.90;58.70;;;;;;5052153;28;20559;-72
2020/12/19 08:32:58;;;;;;;7.55;4.03;;;7.90;58.60;;;;;;5049650;28;20474;-72
2020/12/19 08:35:27;;;;;;;6.85;4.50;;;7.90;58.60;;;;;;5052612;28;20096;-72
2020/12/19 08:38:03;;;;;;;7.82;4.88;;;7.90;59.20;;;;;;5052529;28;20025;-72
2020/12/19 08:40:40;;;;;;;10.95;5.85;;;8.00;58.60;;;;;;5051678;28;20025;-72
2020/12/19 08:43:08;;;;;;;10.68;5.88;;;8.00;58.60;;;;;;5051208;28;20028;-72
2020/12/19 08:45:45;;;;;;;10.13;5.75;;;8.00;58.50;;;;;;5051011;28;20017;-72
2020/12/19 08:48:26;;;;;;;9.48;5.85;;;8.00;58.50;;;;;;5067759;28;20021;-72
2020/12/19 08:50:53;;;;;;;8.98;5.50;;;8.00;58.50;;;;;;5052356;28;20355;-72
2020/12/19 08:53:23;;;;;;;9.30;5.82;;;8.00;58.50;;;;;;5052174;28;20413;-72
2020/12/19 08:55:51;;;;;;;8.68;4.90;;;8.10;58.60;;;;;;5047389;28;20074;-72
2020/12/19 08:58:34;;;;;;;8.35;5.55;;;8.10;58.50;;;;;;5045250;28;20420;-72
2020/12/19 09:01:12;;;;;;;10.38;5.78;;;8.10;58.40;;;;;;5055843;28;20029;-72
2020/12/19 09:03:38;;;;;;;7.82;5.30;;;8.10;58.30;;;;;;5048050;28;20434;-72
2020/12/19 09:06:05;;;;;;;8.15;4.80;;;8.10;58.20;;;;;;5046057;28;20024;-72
2020/12/19 09:08:45;;;;;;;6.80;3.97;;;8.10;58.20;;;;;;5055319;28;20551;-72
2020/12/19 09:11:28;;;;;;;6.07;3.63;;;8.20;58.20;;;;;;5056210;28;20475;-72
2020/12/19 09:14:09;;;;;;;5.72;3.60;;;8.10;58.10;;;;;;5056197;28;20036;-72
2020/12/19 09:16:45;;;;;;;6.05;3.65;;;8.20;58.20;;;;;;5056072;28;20036;-72
2020/12/19 09:19:18;;;;;;;6.07;3.83;;;8.20;58.20;;;;;;5047704;28;20025;-72
2020/12/19 09:21:53;;;;;;;6.35;3.70;;;8.20;58.10;;;;;;5056117;28;20032;-72
2020/12/19 09:24:20;;;;;;;10.07;4.50;;;8.20;58.00;;;;;;5054558;28;20098;-72
2020/12/19 09:26:45;;;;;;;14.15;7.13;;;8.20;58.00;;;;;;5054781;28;20032;-72
2020/12/19 09:29:11;;;;;;;8.77;5.68;;;8.30;58.00;;;;;;5056038;28;20448;-72
2020/12/19 09:31:38;;;;;;;10.63;6.53;;;8.30;58.00;;;;;;5055793;28;20478;-72
2020/12/19 09:34:06;;;;;;;9.00;5.47;;;8.30;57.90;;;;;;5055839;28;20033;-73
2020/12/19 09:36:32;;;;;;;11.93;6.65;;;8.30;57.90;;;;;;5055733;28;20062;-72
2020/12/19 09:38:58;;;;;;;10.35;5.75;;;8.30;57.70;;;;;;5055601;28;20053;-72
2020/12/19 09:41:24;;;;;;;12.95;6.90;;;8.30;57.40;;;;;;5055745;28;20032;-72
2020/12/19 09:43:49;;;;;;;9.60;6.22;;;8.30;57.50;;;;;;5055409;28;20068;-72
2020/12/19 09:46:15;;;;;;;9.20;5.95;;;8.30;57.30;;;;;;5051391;28;20060;-72
2020/12/19 09:48:41;;;;;;;11.77;5.10;;;8.30;57.20;;;;;;5046404;28;20083;-72
2020/12/19 09:51:08;;;;;;;11.20;5.93;;;8.30;57.10;;;;;;5034139;28;20037;-72
2020/12/19 09:53:35;;;;;;;10.57;6.45;;;8.20;57.10;;;;;;5049564;28;20051;-72
2020/12/19 09:56:02;;;;;;;7.80;4.78;;;8.30;57.20;;;;;;5053976;28;20033;-72
2020/12/19 09:58:28;;;;;;;6.18;4.30;;;8.30;57.30;;;;;;5055280;28;20494;-72
2020/12/19 10:00:53;;;;;;;9.93;6.05;;;8.30;57.10;;;;;;5055391;28;20106;-72
2020/12/19 10:03:19;;;;;;;7.93;4.78;;;8.30;57.10;;;;;;5054277;28;20028;-72
2020/12/19 10:05:45;;;;;;;9.38;5.80;;;8.30;56.90;;;;;;5065486;28;20032;-72
2020/12/19 10:08:11;;;;;;;13.43;5.95;;;8.20;56.90;;;;;;5053867;28;20360;-72
2020/12/19 10:10:36;;;;;;;12.73;7.13;;;8.30;56.70;;;;;;5070921;28;20031;-72
2020/12/19 10:13:02;;;;;;;9.00;5.10;;;8.30;56.90;;;;;;5059395;28;20028;-72
2020/12/19 10:15:29;;;;;;;8.93;5.20;;;8.30;57.00;;;;;;5053372;28;20041;-71
2020/12/19 10:17:55;;;;;;;6.93;4.00;;;8.30;56.90;;;;;;5057072;28;20029;-72
2020/12/19 10:20:20;;;;;;;6.35;4.53;;;8.30;56.60;;;;;;5050271;28;20046;-72
2020/12/19 10:22:47;;;;;;;11.27;4.50;;;8.30;56.50;;;;;;5045278;28;20183;-72
2020/12/19 10:25:13;;;;;;;11.73;6.28;;;8.30;56.50;;;;;;5054098;28;20041;-72
2020/12/19 10:27:40;;;;;;;13.43;7.20;;;8.30;56.70;;;;;;5054708;28;20024;-72
2020/12/19 10:30:05;;;;;;;14.80;6.20;;;8.30;56.80;;;;;;5055132;28;20074;-72
2020/12/19 10:32:31;;;;;;;11.57;6.90;;;8.30;56.90;;;;;;5056727;28;20037;-72
2020/12/19 10:34:57;;;;;;;15.02;7.28;;;8.30;56.70;;;;;;5053362;28;20025;-72
2020/12/19 10:37:23;;;;;;;11.50;6.47;;;8.40;56.90;;;;;;5054451;28;20036;-72
2020/12/19 10:39:49;;;;;;;8.18;4.55;;;8.40;56.90;;;;;;5058765;28;20028;-72
2020/12/19 10:42:15;;;;;;;7.55;4.05;;;8.40;56.80;;;;;;5060891;28;20466;-72
2020/12/19 10:44:41;;;;;;;7.63;3.83;;;8.50;56.70;;;;;;5050243;28;20025;-72
2020/12/19 10:47:06;;;;;;;7.00;4.40;;;8.50;56.60;;;;;;5039881;28;20029;-72
2020/12/19 10:49:32;;;;;;;8.57;4.13;;;8.60;56.50;;;;;;5039237;28;20030;-72
2020/12/19 10:52:05;;;;;;;7.35;3.92;;;8.60;57.00;;;;;;5054412;28;20035;-72
2020/12/19 10:54:31;;;;;;;6.13;4.28;;;8.70;56.30;;;;;;5053025;28;20119;-73
2020/12/19 10:56:59;;;;;;;5.50;3.92;;;8.70;56.10;;;;;;5045261;28;20041;-73
2020/12/19 10:59:26;;;;;;;11.02;3.85;;;8.70;56.00;;;;;;5048721;28;20026;-73
2020/12/19 11:01:52;;;;;;;22.27;4.88;;;8.70;56.00;;;;;;5034303;28;20100;-72
2020/12/19 11:04:18;;;;;;;9.23;5.15;;;8.70;56.00;;;;;;5038077;28;20120;-73
2020/12/19 11:06:43;;;;;;;11.57;5.28;;;8.80;55.90;;;;;;5049773;28;20368;-73
2020/12/19 11:09:10;;;;;;;38.28;14.25;;;8.80;55.80;;;;;;5033991;28;20083;-73
2020/12/19 11:11:36;;;;;;;18.00;8.88;;;8.80;55.80;;;;;;5049970;28;20033;-73
2020/12/19 11:14:02;;;;;;;35.67;15.32;;;8.80;55.60;;;;;;5053982;28;20485;-72
2020/12/19 11:16:29;;;;;;;23.23;12.30;;;8.80;55.50;;;;;;5054037;28;20063;-72
2020/12/19 11:18:56;;;;;;;7.00;3.90;;;8.80;55.50;;;;;;5066361;28;20025;-72
2020/12/19 11:21:23;;;;;;;16.05;6.50;;;8.80;55.30;;;;;;5053848;28;20025;-72
2020/12/19 11:23:49;;;;;;;9.50;4.68;;;8.80;55.60;;;;;;5055068;28;20025;-72
2020/12/19 11:26:21;;;;;;;4.68;3.22;;;8.80;55.30;;;;;;5053351;28;20502;-73
2020/12/19 11:28:51;;;;;;;7.88;4.25;;;8.70;55.10;;;;;;5037597;28;20029;-72
2020/12/19 11:31:25;;;;;;;4.38;3.20;;;8.70;55.10;;;;;;5037000;28;20024;-73
2020/12/19 11:33:51;;;;;;;7.30;4.30;;;8.70;55.00;;;;;;5052280;28;20391;-72
2020/12/19 11:36:17;;;;;;;21.77;5.93;;;8.70;55.20;;;;;;5053524;28;20037;-72
2020/12/19 11:38:42;;;;;;;19.17;5.28;;;8.70;55.30;;;;;;5052687;28;20857;-72
2020/12/19 11:41:08;;;;;;;13.20;6.68;;;8.70;55.40;;;;;;5052521;28;20506;-73
2020/12/19 11:43:34;;;;;;;9.00;5.53;;;8.70;55.40;;;;;;5052303;28;20036;-72
2020/12/19 11:46:00;;;;;;;12.13;4.80;;;8.70;55.40;;;;;;5052715;28;20025;-72
2020/12/19 11:48:26;;;;;;;7.47;4.45;;;8.70;55.40;;;;;;5041835;28;20564;-72
2020/12/19 11:50:51;;;;;;;6.47;4.20;;;8.70;55.40;;;;;;5052778;28;20103;-72
2020/12/19 11:53:17;;;;;;;5.13;3.35;;;8.70;55.30;;;;;;5067127;28;20024;-73
2020/12/19 11:55:43;;;;;;;4.68;3.25;;;8.70;55.30;;;;;;5068746;28;20033;-73
2020/12/19 11:58:08;;;;;;;5.25;3.10;;;8.80;55.10;;;;;;5035507;28;20435;-72
2020/12/19 12:00:37;;;;;;;4.80;2.95;;;8.80;55.10;;;;;;5036457;28;20024;-72
2020/12/19 12:03:07;;;;;;;5.68;3.30;;;8.70;54.90;;;;;;5052026;28;20508;-72
2020/12/19 12:05:33;;;;;;;4.40;3.17;;;8.70;54.80;;;;;;5068623;28;20020;-72
2020/12/19 12:07:59;;;;;;;10.80;3.42;;;8.70;54.90;;;;;;5069121;28;20025;-72
2020/12/19 12:10:24;;;;;;;6.10;3.10;;;8.70;55.10;;;;;;5052899;28;20024;-72
2020/12/19 12:12:54;;;;;;;5.22;2.95;;;8.70;55.10;;;;;;5043455;28;20544;-72
2020/12/19 12:15:20;;;;;;;11.07;4.25;;;8.70;55.10;;;;;;5045574;28;20032;-73
2020/12/19 12:17:48;;;;;;;5.35;3.20;;;8.70;54.90;;;;;;5056018;28;20056;-73
2020/12/19 12:20:20;;;;;;;4.18;2.80;;;8.70;54.70;;;;;;5056471;28;20029;-73
2020/12/19 12:22:49;;;;;;;4.13;2.83;;;8.70;54.80;;;;;;5067677;28;20021;-73
2020/12/19 12:25:14;;;;;;;10.25;4.10;;;8.70;55.10;;;;;;5053868;28;20037;-73
2020/12/19 12:27:42;;;;;;;8.05;3.35;;;8.70;55.20;;;;;;5052072;28;20117;-73
2020/12/19 12:30:08;;;;;;;4.63;3.08;;;8.70;55.20;;;;;;5050897;28;20057;-73
2020/12/19 12:32:38;;;;;;;6.50;4.18;;;8.70;55.20;;;;;;5052711;28;20025;-73
2020/12/19 12:35:05;;;;;;;6.20;3.95;;;8.70;55.30;;;;;;5041176;28;20063;-73
2020/12/19 12:37:30;;;;;;;5.55;3.60;;;8.70;55.10;;;;;;5050742;28;20031;-73
2020/12/19 12:39:56;;;;;;;5.30;3.58;;;8.70;55.20;;;;;;5051072;28;20025;-72
2020/12/19 12:42:23;;;;;;;7.35;3.53;;;8.70;55.30;;;;;;5047758;28;20025;-73
2020/12/19 12:44:50;;;;;;;7.82;3.50;;;8.70;55.30;;;;;;5032655;28;20029;-73
2020/12/19 12:47:16;;;;;;;5.57;3.40;;;8.80;55.40;;;;;;5050089;28;20025;-73
2020/12/19 12:49:42;;;;;;;4.68;3.63;;;8.80;55.40;;;;;;5051899;28;20051;-73
2020/12/19 12:52:08;;;;;;;5.38;3.42;;;8.80;55.40;;;;;;5052025;28;20064;-72
2020/12/19 12:54:33;;;;;;;4.18;3.13;;;8.80;55.30;;;;;;5042166;28;20032;-72
2020/12/19 12:56:59;;;;;;;6.03;3.85;;;8.80;55.30;;;;;;5052919;28;20363;-72